Time;durP1;ratioP1;P1;durP2;ratioP2;P2;SDS_P1;SDS_P2;PMS_P1;PMS_P2;Temp;Humidity;BMP_temperature;BMP_pressure;BME280_temperature;BME280_humidity;BME280_pressure;Samples;Min_cycle;Max_cycle;Signal;HPM_P1;HPM_P2
2022/03/09 00:00:55;;;;;;;35.47;12.23;;;;;;;1.34;100.00;99484.91;4370667;32;20050;-77
2022/03/09 00:03:22;;;;;;;28.20;11.98;;;;;;;0.87;100.00;99399.22;4384528;32;20043;-78
2022/03/09 00:05:49;;;;;;;36.42;11.77;;;;;;;1.46;100.00;99493.25;4356336;32;20065;-78
2022/03/09 00:08:15;;;;;;;27.85;11.73;;;;;;;1.15;100.00;99450.91;4376628;32;20028;-77
2022/03/09 00:10:42;;;;;;;28.95;11.30;;;;;;;1.15;100.00;99443.78;4382752;32;20204;-78
2022/03/09 00:13:09;;;;;;;33.58;13.15;;;;;;;1.44;100.00;99504.06;4369583;32;20039;-77
2022/03/09 00:15:36;;;;;;;42.62;13.30;;;;;;;1.11;100.00;99449.63;4389061;32;20040;-78
2022/03/09 00:18:03;;;;;;;31.15;12.45;;;;;;;0.67;100.00;99358.31;4379014;32;20088;-78
2022/03/09 00:20:30;;;;;;;31.33;12.20;;;;;;;1.11;100.00;99444.31;4384037;32;20035;-77
2022/03/09 00:22:57;;;;;;;27.62;10.77;;;;;;;1.01;100.00;99432.13;4383667;32;20431;-77
2022/03/09 00:25:24;;;;;;;33.47;13.35;;;;;;;1.34;100.00;99474.31;4377034;32;20091;-77
2022/03/09 00:27:50;;;;;;;30.02;11.20;;;;;;;1.19;100.00;99439.75;4391949;32;20376;-77
2022/03/09 00:30:17;;;;;;;30.95;12.75;;;;;;;1.21;100.00;99428.97;4382490;32;20072;-78
2022/03/09 00:32:46;;;;;;;30.23;11.85;;;;;;;1.55;100.00;99476.28;4385570;32;20782;-77
2022/03/09 00:35:16;;;;;;;25.67;10.75;;;;;;;1.54;100.00;99479.91;4357914;32;20417;-79
2022/03/09 00:37:43;;;;;;;32.45;11.48;;;;;;;1.13;100.00;99413.13;4385126;32;20079;-78
2022/03/09 00:40:10;;;;;;;28.40;10.68;;;;;;;1.26;100.00;99408.88;4373926;32;20403;-79
2022/03/09 00:42:38;;;;;;;34.42;10.45;;;;;;;0.94;100.00;99356.91;4370633;32;20059;-79
2022/03/09 00:45:05;;;;;;;24.50;10.00;;;;;;;1.60;100.00;99457.16;4374674;32;20060;-79
2022/03/09 00:47:32;;;;;;;26.80;8.13;;;;;;;1.59;100.00;99447.53;4385747;32;20071;-76
2022/03/09 00:49:59;;;;;;;26.15;10.35;;;;;;;1.39;100.00;99394.97;4397304;32;20035;-77
2022/03/09 00:52:26;;;;;;;20.27;8.43;;;;;;;1.72;100.00;99442.41;4381508;32;20051;-77
2022/03/09 00:54:53;;;;;;;26.62;9.23;;;;;;;1.48;100.00;99394.91;4370631;32;20027;-77
2022/03/09 00:57:19;;;;;;;24.35;8.95;;;;;;;1.78;100.00;99439.03;4384130;32;20027;-76
2022/03/09 00:59:46;;;;;;;32.05;10.23;;;;;;;1.78;100.00;99425.75;4369764;32;20372;-76
2022/03/09 01:02:13;;;;;;;28.92;9.07;;;;;;;1.50;100.00;99385.75;4384640;32;20435;-77
2022/03/09 01:04:40;;;;;;;31.23;10.32;;;;;;;1.82;100.00;99423.56;4371795;32;20431;-76
2022/03/09 01:07:07;;;;;;;29.10;10.32;;;;;;;1.53;100.00;99379.25;4370897;32;20054;-77
2022/03/09 01:09:34;;;;;;;29.08;9.70;;;;;;;1.86;100.00;99426.69;4370637;32;20061;-77
2022/03/09 01:12:03;;;;;;;30.48;10.82;;;;;;;1.88;100.00;99432.62;4370180;32;20338;-77
2022/03/09 01:14:30;;;;;;;29.52;10.88;;;;;;;1.57;100.00;99372.56;4375317;32;20358;-77
2022/03/09 01:16:56;;;;;;;33.17;10.77;;;;;;;1.92;100.00;99425.94;4367541;32;20216;-77
2022/03/09 01:19:23;;;;;;;28.05;10.38;;;;;;;1.61;100.00;99379.16;4368793;32;20024;-77
2022/03/09 01:21:50;;;;;;;21.65;9.55;;;;;;;1.74;100.00;99400.59;4355877;32;20109;-76
2022/03/09 01:24:16;;;;;;;26.75;9.68;;;;;;;1.87;100.00;99420.34;4378149;32;20080;-77
2022/03/09 01:26:44;;;;;;;21.10;8.85;;;;;;;1.47;100.00;99366.69;4357169;32;20049;-77
2022/03/09 01:29:11;;;;;;;31.12;10.05;;;;;;;1.87;100.00;99409.72;4388889;32;20459;-76
2022/03/09 01:31:38;;;;;;;27.90;9.20;;;;;;;1.92;100.00;99412.66;4384772;32;20056;-77
2022/03/09 01:34:04;;;;;;;25.98;10.15;;;;;;;1.97;100.00;99412.94;4388365;32;20031;-77
2022/03/09 01:36:31;;;;;;;28.75;11.48;;;;;;;1.46;100.00;99334.03;4383563;32;20087;-79
2022/03/09 01:38:57;;;;;;;33.20;11.45;;;;;;;2.00;100.00;99415.22;4370346;32;20035;-77
2022/03/09 01:41:23;;;;;;;28.05;12.10;;;;;;;1.52;100.00;99343.94;4373029;32;20058;-78
2022/03/09 01:44:08;;;;;;;34.90;12.37;;;;;;;1.97;100.00;99420.91;4371221;32;20035;-78
2022/03/09 01:46:35;;;;;;;34.97;9.43;;;;;;;1.65;100.00;99358.41;4365438;32;20069;-78
2022/03/09 01:49:03;;;;;;;26.00;8.95;;;;;;;1.94;100.00;99408.00;4368038;32;20099;-77
2022/03/09 01:51:32;;;;;;;29.87;9.07;;;;;;;1.65;100.00;99369.00;4377344;32;20035;-77
2022/03/09 01:53:59;;;;;;;35.90;13.02;;;;;;;1.73;100.00;99392.81;4386817;32;20034;-77
2022/03/09 01:56:27;;;;;;;27.02;9.73;;;;;;;1.48;100.00;99336.50;4372532;32;20061;-78
2022/03/09 01:58:53;;;;;;;29.08;10.07;;;;;;;1.90;100.00;99419.97;4384731;32;20082;-78
2022/03/09 02:01:21;;;;;;;33.50;10.85;;;;;;;1.64;100.00;99370.81;4386362;32;20080;-77
2022/03/09 02:03:47;;;;;;;25.73;9.52;;;;;;;1.80;100.00;99399.84;4386685;32;20141;-77
2022/03/09 02:06:14;;;;;;;27.13;10.05;;;;;;;1.88;100.00;99416.69;4385530;32;20065;-78
2022/03/09 02:11:28;;;;;;;30.02;9.77;;;;;;;1.86;100.00;99402.78;4386924;32;20046;-77
2022/03/09 02:13:54;;;;;;;29.10;12.13;;;;;;;1.39;100.00;99339.25;4373267;32;20038;-77
2022/03/09 02:16:21;;;;;;;33.45;11.02;;;;;;;1.83;100.00;99414.59;4371210;32;20483;-78
2022/03/09 02:18:47;;;;;;;25.70;9.55;;;;;;;1.48;100.00;99358.56;4386248;32;20047;-78
2022/03/09 02:21:16;;;;;;;31.17;9.60;;;;;;;1.41;100.00;99363.78;4385613;32;20412;-77
2022/03/09 02:23:44;;;;;;;22.17;9.68;;;;;;;1.65;100.00;99401.69;4401358;32;20034;-77
2022/03/09 02:26:11;;;;;;;24.05;8.68;;;;;;;1.54;100.00;99399.47;4386779;32;20057;-77
2022/03/09 02:28:38;;;;;;;28.62;9.88;;;;;;;1.54;100.00;99395.00;4371570;32;20360;-77
2022/03/09 02:31:05;;;;;;;17.87;8.00;;;;;;;1.54;100.00;99399.47;4385804;32;20038;-76
2022/03/09 02:33:32;;;;;;;28.27;8.80;;;;;;;1.50;100.00;99411.44;4386745;32;20046;-78
2022/03/09 02:35:58;;;;;;;17.27;7.75;;;;;;;1.22;100.00;99366.97;4372714;32;20040;-78
2022/03/09 02:38:25;;;;;;;17.40;8.27;;;;;;;1.43;100.00;99404.22;4383668;32;20040;-78
2022/03/09 02:40:51;;;;;;;23.17;8.48;;;;;;;1.30;100.00;99393.41;4376309;32;20046;-79
2022/03/09 02:43:18;;;;;;;23.00;8.77;;;;;;;1.03;100.00;99350.53;4387300;32;20022;-78
2022/03/09 02:45:44;;;;;;;23.75;9.25;;;;;;;1.35;100.00;99406.94;4382381;32;20047;-77
2022/03/09 02:48:11;;;;;;;28.65;10.07;;;;;;;1.27;100.00;99404.38;4375745;32;20023;-77
2022/03/09 02:50:38;;;;;;;24.75;10.15;;;;;;;1.00;100.00;99356.22;4395785;32;20031;-77
2022/03/09 02:53:04;;;;;;;40.95;9.98;;;;;;;0.98;100.00;99363.53;4400373;32;20042;-78
2022/03/09 02:55:31;;;;;;;28.10;9.55;;;;;;;1.15;100.00;99396.03;4400636;32;20081;-77
2022/03/09 02:57:57;;;;;;;30.88;11.10;;;;;;;0.88;100.00;99357.66;4385554;32;20396;-77
2022/03/09 03:00:23;;;;;;;22.02;9.60;;;;;;;0.81;100.00;99362.00;4385807;32;20238;-77
2022/03/09 03:02:50;;;;;;;27.80;10.93;;;;;;;1.08;100.00;99403.88;4386242;32;20069;-77
2022/03/09 03:05:16;;;;;;;25.62;9.75;;;;;;;0.84;100.00;99364.31;4385056;32;20035;-77
2022/03/09 03:07:43;;;;;;;36.30;11.48;;;;;;;0.97;100.00;99391.03;4385665;32;20107;-77
2022/03/09 03:10:10;;;;;;;27.85;10.07;;;;;;;0.64;100.00;99345.41;4387176;32;20187;-77
2022/03/09 03:12:36;;;;;;;32.25;11.07;;;;;;;0.62;100.00;99342.94;4394380;32;20064;-77
2022/03/09 03:15:04;;;;;;;20.83;10.00;;;;;;;0.91;100.00;99394.44;4377743;32;20098;-77
2022/03/09 03:17:30;;;;;;;24.75;9.70;;;;;;;0.67;100.00;99359.16;4371869;32;20372;-77
2022/03/09 03:19:57;;;;;;;31.42;11.98;;;;;;;0.66;100.00;99354.03;4385594;32;20035;-77
2022/03/09 03:22:23;;;;;;;25.42;10.98;;;;;;;0.87;100.00;99399.22;4387596;32;20073;-77
2022/03/09 03:24:49;;;;;;;23.20;10.63;;;;;;;0.39;100.00;99323.59;4374037;32;20031;-78
2022/03/09 03:27:16;;;;;;;25.48;10.70;;;;;;;0.79;100.00;99409.91;4373040;32;20027;-78
2022/03/09 03:29:42;;;;;;;26.67;10.60;;;;;;;0.77;100.00;99413.75;4371766;32;20043;-78
2022/03/09 03:32:15;;;;;;;31.62;11.48;;;;;;;0.74;100.00;99412.28;4373331;32;20877;-78
2022/03/09 03:34:42;;;;;;;30.27;10.77;;;;;;;0.64;100.00;99411.66;4372711;32;20023;-79
2022/03/09 03:37:10;;;;;;;24.25;10.75;;;;;;;0.28;100.00;99362.72;4385369;32;20181;-77
2022/03/09 03:39:36;;;;;;;32.90;11.50;;;;;;;0.22;100.00;99358.09;4389583;32;20030;-78
2022/03/09 03:42:03;;;;;;;31.65;12.13;;;;;;;0.51;100.00;99404.28;4398189;32;20515;-79
2022/03/09 03:44:30;;;;;;;30.02;10.98;;;;;;;0.47;100.00;99413.59;4401140;32;20057;-80
2022/03/09 03:46:56;;;;;;;26.85;11.25;;;;;;;0.36;100.00;99391.78;4400280;32;20069;-80
2022/03/09 03:49:22;;;;;;;28.08;11.45;;;;;;;0.31;100.00;99396.78;4378626;32;20379;-80
2022/03/09 03:51:49;;;;;;;40.92;13.13;;;;;;;0.29;100.00;99404.09;4384356;32;20050;-80
2022/03/09 03:54:15;;;;;;;34.63;12.18;;;;;;;0.26;100.00;99398.34;4384851;32;20077;-78
2022/03/09 03:56:42;;;;;;;37.60;13.62;;;;;;;0.22;100.00;99395.19;4378570;32;20043;-77
2022/03/09 03:59:08;;;;;;;38.88;13.52;;;;;;;0.13;100.00;99385.66;4371645;32;20027;-78
2022/03/09 04:01:35;;;;;;;33.58;12.27;;;;;;;0.18;100.00;99399.19;4372349;32;20031;-80
2022/03/09 04:04:02;;;;;;;32.67;12.93;;;;;;;0.16;100.00;99396.72;4382862;32;20039;-79
2022/03/09 04:06:29;;;;;;;35.67;13.20;;;;;;;0.15;100.00;99402.19;4394995;32;20092;-76
2022/03/09 04:08:56;;;;;;;33.85;12.75;;;;;;;0.10;100.00;99401.88;4385789;32;20072;-77
2022/03/09 04:11:29;;;;;;;39.20;13.57;;;;;;;0.04;100.00;99392.78;4372088;32;20039;-76
2022/03/09 04:13:55;;;;;;;40.78;13.18;;;;;;;0.06;100.00;99400.56;4370063;32;20413;-77
2022/03/09 04:16:22;;;;;;;33.05;12.18;;;;;;;0.01;100.00;99392.31;4383227;32;20053;-77
2022/03/09 04:18:49;;;;;;;33.70;11.73;;;;;;;-0.04;100.00;99385.72;4385455;32;20050;-76
2022/03/09 04:21:15;;;;;;;40.45;12.82;;;;;;;-0.39;100.00;99324.31;4376322;32;20064;-77
2022/03/09 04:23:41;;;;;;;36.45;12.63;;;;;;;-0.03;100.00;99390.03;4385296;32;20043;-76
2022/03/09 04:26:08;;;;;;;33.92;13.77;;;;;;;-0.04;100.00;99388.34;4388905;32;20038;-76
2022/03/09 04:28:34;;;;;;;40.97;14.90;;;;;;;-0.09;100.00;99381.94;4385101;32;20047;-76
2022/03/09 04:31:01;;;;;;;37.50;13.52;;;;;;;-0.07;100.00;99391.34;4369595;32;20043;-76
2022/03/09 04:33:28;;;;;;;37.63;13.75;;;;;;;-0.46;100.00;99333.09;4370466;32;20089;-76
2022/03/09 04:35:54;;;;;;;36.30;13.48;;;;;;;-0.33;100.00;99365.16;4371379;32;20036;-77
2022/03/09 04:38:20;;;;;;;39.78;14.43;;;;;;;-0.12;100.00;99393.69;4365771;32;20057;-77
2022/03/09 04:40:47;;;;;;;39.72;13.35;;;;;;;-0.13;100.00;99397.31;4369497;32;20073;-75
2022/03/09 04:43:13;;;;;;;41.03;15.00;;;;;;;-0.17;100.00;99380.16;4394372;32;20039;-75
2022/03/09 04:45:40;;;;;;;44.90;15.73;;;;;;;-0.77;100.00;99295.03;4382514;32;20443;-77
2022/03/09 04:48:06;;;;;;;43.35;14.93;;;;;;;-0.18;100.00;99383.78;4382250;32;20035;-76
2022/03/09 04:50:32;;;;;;;49.22;15.60;;;;;;;-0.12;100.00;99388.41;4386403;32;20068;-77
2022/03/09 04:52:59;;;;;;;38.35;15.00;;;;;;;-0.11;100.00;99379.47;4375441;32;20039;-78
2022/03/09 04:55:26;;;;;;;41.28;14.82;;;;;;;-0.81;100.00;99272.56;4369577;32;20069;-78
2022/03/09 04:57:52;;;;;;;35.10;13.88;;;;;;;-0.13;100.00;99378.78;4385305;32;20369;-77
2022/03/09 05:00:19;;;;;;;37.60;16.48;;;;;;;-0.46;100.00;99318.09;4383274;32;20069;-78
2022/03/09 05:02:46;;;;;;;46.45;15.18;;;;;;;-0.67;100.00;99286.06;4372549;32;20084;-77
2022/03/09 05:05:12;;;;;;;38.20;14.65;;;;;;;-0.08;100.00;99384.44;4377963;32;20050;-77
2022/03/09 05:07:42;;;;;;;39.10;15.75;;;;;;;-0.11;100.00;99368.87;4371442;32;20052;-78
2022/03/09 05:10:12;;;;;;;36.70;15.68;;;;;;;-0.49;100.00;99315.78;4384469;32;20080;-78
2022/03/09 05:12:38;;;;;;;42.50;16.77;;;;;;;-0.41;100.00;99334.25;4380025;32;20064;-78
2022/03/09 05:15:05;;;;;;;54.15;19.70;;;;;;;-0.20;100.00;99372.56;4375481;32;20044;-78
2022/03/09 05:17:32;;;;;;;53.65;17.55;;;;;;;-0.76;100.00;99288.75;4369634;32;20419;-77
2022/03/09 05:20:00;;;;;;;57.83;17.30;;;;;;;-0.76;100.00;99296.69;4359195;32;20034;-77
2022/03/09 05:22:27;;;;;;;57.33;18.83;;;;;;;-0.22;100.00;99393.91;4378876;32;20040;-76
2022/03/09 05:24:53;;;;;;;59.15;19.75;;;;;;;-0.31;100.00;99383.50;4384854;32;20085;-79
2022/03/09 05:27:20;;;;;;;54.45;16.83;;;;;;;-0.53;100.00;99361.25;4383735;32;20474;-80
2022/03/09 05:29:46;;;;;;;54.38;17.37;;;;;;;-0.39;100.00;99385.19;4370264;32;20035;-80
2022/03/09 05:32:13;;;;;;;47.88;17.90;;;;;;;-0.56;100.00;99359.75;4370044;32;20069;-79
2022/03/09 05:34:39;;;;;;;47.00;17.90;;;;;;;-0.69;100.00;99343.59;4364980;32;20039;-80
2022/03/09 05:37:05;;;;;;;43.30;14.85;;;;;;;-0.41;100.00;99399.59;4384011;32;20067;-79
2022/03/09 05:39:32;;;;;;;54.65;15.73;;;;;;;-0.67;100.00;99357.47;4402156;32;20034;-80
2022/03/09 05:41:58;;;;;;;43.67;15.15;;;;;;;-0.34;100.00;99412.97;4376362;32;20020;-80
2022/03/09 05:44:25;;;;;;;40.53;16.00;;;;;;;-0.37;100.00;99407.03;4391656;32;20051;-78
2022/03/09 05:46:51;;;;;;;47.25;15.88;;;;;;;-0.34;100.00;99420.91;4386477;32;20031;-77
2022/03/09 05:49:18;;;;;;;41.15;16.58;;;;;;;-0.42;100.00;99400.56;4387011;32;20028;-83
2022/03/09 05:51:45;;;;;;;45.38;15.38;;;;;;;-0.30;100.00;99419.53;4373189;32;20465;-76
2022/03/09 05:54:12;;;;;;;46.20;16.83;;;;;;;-0.34;100.00;99420.91;4386975;32;20027;-76
2022/03/09 05:56:39;;;;;;;55.40;16.85;;;;;;;-0.68;100.00;99361.94;4394456;32;20069;-77
2022/03/09 05:59:06;;;;;;;49.50;17.08;;;;;;;-0.30;100.00;99422.19;4403572;32;20068;-77
2022/03/09 06:01:33;;;;;;;39.70;15.07;;;;;;;-0.61;100.00;99367.38;4381565;32;20035;-77
2022/03/09 06:04:01;;;;;;;50.50;15.77;;;;;;;-0.27;100.00;99435.09;4380685;32;20085;-79
2022/03/09 06:06:27;;;;;;;46.63;14.77;;;;;;;-0.34;100.00;99436.78;4363467;32;20470;-78
2022/03/09 06:08:53;;;;;;;40.55;16.27;;;;;;;-0.35;100.00;99440.41;4373575;32;20396;-79
2022/03/09 06:11:23;;;;;;;40.22;14.73;;;;;;;-0.63;100.00;99391.34;4387499;32;20391;-78
2022/03/09 06:13:50;;;;;;;49.70;14.27;;;;;;;-0.70;100.00;99387.75;4374092;32;20077;-77
2022/03/09 06:16:16;;;;;;;40.53;13.55;;;;;;;-0.35;100.00;99429.81;4385138;32;20069;-78
2022/03/09 06:18:46;;;;;;;43.85;14.57;;;;;;;-0.34;100.00;99436.78;4387245;32;20080;-77
2022/03/09 06:21:15;;;;;;;38.38;13.52;;;;;;;-0.25;100.00;99447.16;4372954;32;20418;-78
2022/03/09 06:23:42;;;;;;;40.97;13.00;;;;;;;-0.22;100.00;99446.00;4372771;32;20096;-78
2022/03/09 06:26:09;;;;;;;36.65;13.43;;;;;;;-0.22;100.00;99456.59;4375136;32;20027;-79
2022/03/09 06:28:35;;;;;;;35.50;13.35;;;;;;;-0.24;100.00;99453.28;4364915;32;20879;-77
2022/03/09 06:31:02;;;;;;;35.78;13.18;;;;;;;-0.56;100.00;99402.09;4370456;32;20039;-79
2022/03/09 06:33:35;;;;;;;40.67;12.68;;;;;;;-0.14;100.00;99458.38;4374438;32;20024;-79
2022/03/09 06:36:02;;;;;;;38.75;13.25;;;;;;;-0.18;100.00;99457.91;4383928;32;20034;-78
2022/03/09 06:38:28;;;;;;;31.55;11.57;;;;;;;-0.46;100.00;99413.31;4387869;32;20069;-76
2022/03/09 06:40:55;;;;;;;35.85;12.27;;;;;;;-0.82;100.00;99360.81;4387306;32;20195;-79
2022/03/09 06:43:22;;;;;;;32.75;12.77;;;;;;;-0.24;100.00;99459.41;4387402;32;20149;-79
2022/03/09 06:45:48;;;;;;;34.78;11.55;;;;;;;-0.51;100.00;99425.38;4372093;32;20053;-79
2022/03/09 06:48:16;;;;;;;29.70;12.85;;;;;;;-0.19;100.00;99464.19;4372365;32;20035;-86
2022/03/09 06:50:43;;;;;;;42.38;15.65;;;;;;;-0.43;100.00;99418.28;4393764;32;20114;-81
2022/03/09 06:53:13;;;;;;;34.58;12.73;;;;;;;-0.25;100.00;99438.41;4386447;32;20095;-85
2022/03/09 06:55:40;;;;;;;36.67;13.82;;;;;;;-0.46;100.00;99423.91;4375680;32;20094;-80
2022/03/09 06:58:06;;;;;;;31.95;12.05;;;;;;;-0.20;100.00;99465.19;4395249;32;20453;-78
2022/03/09 07:00:33;;;;;;;36.95;13.62;;;;;;;-0.46;100.00;99431.84;4379300;32;20106;-79
2022/03/09 07:02:59;;;;;;;27.58;11.12;;;;;;;-0.12;100.00;99473.09;4394542;32;20501;-79
2022/03/09 07:05:26;;;;;;;30.98;13.35;;;;;;;-0.13;100.00;99470.62;4380451;32;20095;-77
2022/03/09 07:07:53;;;;;;;33.25;13.55;;;;;;;-0.48;100.00;99412.66;4389609;32;20470;-79
2022/03/09 07:10:20;;;;;;;34.22;12.82;;;;;;;-0.37;100.00;99428.19;4378385;32;20389;-80
2022/03/09 07:12:47;;;;;;;43.55;14.18;;;;;;;-0.28;100.00;99426.34;4383569;32;20960;-80
2022/03/09 07:15:15;;;;;;;35.95;12.65;;;;;;;-0.17;100.00;99433.09;4385852;32;20086;-78
2022/03/09 07:17:42;;;;;;;28.87;12.15;;;;;;;0.17;100.00;99482.28;4385932;32;20406;-78
2022/03/09 07:20:10;;;;;;;41.22;12.50;;;;;;;-0.12;100.00;99438.69;4371306;32;20437;-79
2022/03/09 07:22:38;;;;;;;35.53;12.55;;;;;;;0.17;100.00;99492.88;4371397;32;20043;-77
2022/03/09 07:25:05;;;;;;;33.25;12.30;;;;;;;0.08;100.00;99467.41;4385694;32;20043;-78
2022/03/09 07:27:32;;;;;;;27.80;11.77;;;;;;;0.18;100.00;99483.94;4384379;32;20084;-78
2022/03/09 07:29:59;;;;;;;39.65;13.30;;;;;;;0.10;100.00;99482.16;4370029;32;20620;-77
2022/03/09 07:32:25;;;;;;;36.83;13.10;;;;;;;0.05;100.00;99481.00;4367123;32;20061;-78
2022/03/09 07:34:51;;;;;;;38.05;11.55;;;;;;;0.04;100.00;99476.72;4370765;32;20437;-77
2022/03/09 07:37:18;;;;;;;38.65;11.73;;;;;;;-0.17;100.00;99433.09;4360450;32;20039;-77
2022/03/09 07:39:45;;;;;;;28.00;10.93;;;;;;;0.20;100.00;99491.72;4386097;32;20444;-78
2022/03/09 07:42:11;;;;;;;31.00;11.00;;;;;;;0.29;100.00;99506.59;4370915;32;20024;-78
2022/03/09 07:44:45;;;;;;;30.88;11.65;;;;;;;0.25;100.00;99484.91;4372879;32;20074;-76
2022/03/09 07:47:11;;;;;;;25.85;10.00;;;;;;;0.01;100.00;99447.94;4375631;32;20051;-77
2022/03/09 07:49:38;;;;;;;36.88;11.77;;;;;;;0.10;100.00;99444.25;4386012;32;20359;-80
2022/03/09 07:52:06;;;;;;;26.35;10.52;;;;;;;0.46;100.00;99491.44;4371043;32;20112;-79
2022/03/09 07:54:32;;;;;;;33.33;13.55;;;;;;;0.22;100.00;99452.63;4370334;32;20027;-80
2022/03/09 07:56:59;;;;;;;38.17;12.07;;;;;;;0.50;100.00;99492.75;4384991;32;20088;-81
2022/03/09 07:59:27;;;;;;;32.53;12.55;;;;;;;0.64;100.00;99494.66;4385791;32;20433;-80
2022/03/09 08:01:56;;;;;;;30.60;11.60;;;;;;;0.68;100.00;99495.12;4371281;32;20079;-79
2022/03/09 08:04:24;;;;;;;35.60;14.55;;;;;;;0.68;100.00;99485.34;4381679;32;20080;-80
2022/03/09 08:06:52;;;;;;;39.03;13.52;;;;;;;0.52;100.00;99437.75;4374858;32;20053;-80
2022/03/09 08:09:19;;;;;;;30.27;13.98;;;;;;;0.70;100.00;99478.06;4356511;32;20051;-82
2022/03/09 08:11:46;;;;;;;37.90;15.35;;;;;;;0.56;100.00;99439.06;4356351;32;20065;-81
2022/03/09 08:14:15;;;;;;;29.95;13.55;;;;;;;0.00;100.00;99349.16;4369634;32;20047;-82
2022/03/09 08:16:42;;;;;;;33.92;14.23;;;;;;;0.59;100.00;99425.47;4377358;32;20043;-83
2022/03/09 08:19:08;;;;;;;34.70;14.27;;;;;;;0.55;100.00;99402.94;4371591;32;20879;-81
2022/03/09 08:21:35;;;;;;;33.42;12.40;;;;;;;0.87;100.00;99430.25;4384503;32;20063;-81
2022/03/09 08:24:02;;;;;;;33.63;11.45;;;;;;;1.11;100.00;99460.22;4370678;32;20018;-80
2022/03/09 08:26:29;;;;;;;24.50;11.38;;;;;;;1.26;100.00;99466.38;4385003;32;20064;-81
2022/03/09 08:28:57;;;;;;;28.62;10.82;;;;;;;1.48;100.00;99474.50;4384362;32;20031;-81
2022/03/09 08:33:56;;;;;;;25.45;11.93;;;;;;;1.23;100.00;99429.63;4385400;32;20043;-80
2022/03/09 08:36:23;;;;;;;25.95;12.32;;;;;;;1.26;100.00;99418.62;4377410;32;20121;-81
2022/03/09 08:38:49;;;;;;;32.42;14.07;;;;;;;1.39;100.00;99426.81;4392666;32;20102;-80
2022/03/09 08:41:18;;;;;;;22.05;13.98;;;;;;;1.73;100.00;99467.97;4377391;32;20123;-75
2022/03/09 08:43:45;;;;;;;21.15;12.77;;;;;;;1.77;100.00;99471.06;4384296;32;20031;-75
2022/03/09 08:46:12;;;;;;;22.95;12.95;;;;;;;1.80;100.00;99465.41;4384814;32;20385;-75
2022/03/09 08:48:39;;;;;;;25.50;13.68;;;;;;;1.93;100.00;99468.25;4384712;32;20401;-75
2022/03/09 08:51:07;;;;;;;17.70;9.15;;;;;;;2.08;100.00;99462.94;4384557;32;20039;-74
2022/03/09 08:53:34;;;;;;;21.52;11.60;;;;;;;1.89;100.00;99424.47;4376326;32;20077;-74
2022/03/09 08:56:00;;;;;;;17.95;9.85;;;;;;;2.31;100.00;99464.66;4368601;32;20468;-75
2022/03/09 08:58:37;;;;;;;15.77;8.70;;;;;;;2.39;100.00;99472.53;4367783;32;20409;-77
2022/03/09 09:01:06;;;;;;;15.15;7.53;;;;;;;2.17;100.00;99421.16;4382236;32;20043;-75
2022/03/09 09:03:33;;;;;;;10.75;6.30;;;;;;;2.59;100.00;99466.66;4383708;32;20055;-76
2022/03/09 09:06:00;;;;;;;14.63;7.53;;;;;;;2.64;100.00;99458.91;4370909;32;20081;-75
2022/03/09 09:08:27;;;;;;;13.90;6.82;;;;;;;2.69;100.00;99472.47;4385309;32;20360;-75
2022/03/09 09:10:54;;;;;;;18.23;7.53;;;;;;;2.78;100.00;99476.66;4382856;32;20061;-78
2022/03/09 09:13:21;;;;;;;12.55;5.75;;;;;;;2.87;100.00;99475.53;4369910;32;20051;-76
2022/03/09 09:15:49;;;;;;;15.90;4.47;;;;;;;2.83;100.00;99452.16;4371609;32;20389;-75
2022/03/09 09:18:15;;;;;;;16.58;5.60;;;;;;;2.67;100.00;99437.28;4371594;32;20067;-76
2022/03/09 09:20:41;;;;;;;14.23;5.82;;;;;;;2.82;100.00;99467.28;4369993;32;20072;-76
2022/03/09 09:23:08;;;;;;;13.70;5.72;;;;;;;2.93;100.00;99470.47;4381607;32;20035;-76
2022/03/09 09:25:36;;;;;;;10.02;4.25;;;;;;;3.06;100.00;99489.22;4371068;32;20070;-77
2022/03/09 09:28:03;;;;;;;9.45;3.50;;;;;;;3.01;100.00;99467.69;4379871;32;20035;-76
2022/03/09 09:30:32;;;;;;;10.18;4.32;;;;;;;3.14;100.00;99475.78;4355555;32;20073;-76
2022/03/09 09:32:59;;;;;;;9.10;4.30;;;;;;;3.20;100.00;99464.38;4378847;32;20035;-77
2022/03/09 09:35:26;;;;;;;11.70;5.05;;;;;;;3.41;100.00;99481.34;4384099;32;20113;-76
2022/03/09 09:37:52;;;;;;;12.00;4.03;;;;;;;3.52;100.00;99488.81;4370890;32;20057;-76
2022/03/09 09:40:19;;;;;;;9.15;4.18;;;;;;;3.41;100.00;99492.00;4383631;32;20039;-76
2022/03/09 09:42:50;;;;;;;7.30;3.53;;;;;;;3.41;100.00;99468.84;4383328;32;20388;-77
2022/03/09 09:45:16;;;;;;;9.27;4.43;;;;;;;3.26;100.00;99447.66;4369907;32;20031;-79
2022/03/09 09:47:43;;;;;;;12.00;5.35;;;;;;;3.22;100.00;99443.75;4384155;32;20031;-77
2022/03/09 09:50:13;;;;;;;14.38;5.78;;;;;;;3.63;100.00;99490.94;4383778;32;20055;-77
2022/03/09 09:52:41;;;;;;;11.55;4.65;;;;;;;3.23;100.00;99399.31;4382639;32;20124;-77
2022/03/09 09:55:08;;;;;;;10.35;4.00;;;;;;;3.78;100.00;99469.56;4369506;32;20052;-78
2022/03/09 09:57:35;;;;;;;15.95;4.37;;;;;;;3.58;100.00;99436.66;4370396;32;20368;-76
2022/03/09 10:00:05;;;;;;;10.18;4.18;;;;;;;3.91;95.54;99491.97;4383925;32;20580;-77
2022/03/09 10:02:44;;;;;;;7.70;4.00;;;;;;;4.03;92.94;99505.59;4371608;32;20376;-76
2022/03/09 10:05:14;;;;;;;9.10;4.15;;;;;;;4.05;93.90;99514.19;4367230;32;20047;-77
2022/03/09 10:08:06;;;;;;;8.95;4.57;;;;;;;3.87;99.91;99454.25;4367724;32;20106;-75
2022/03/09 10:10:35;;;;;;;9.85;3.80;;;;;;;4.12;97.82;99493.75;4365980;32;20035;-78
2022/03/09 10:13:17;;;;;;;8.43;4.43;;;;;;;4.16;90.51;99501.16;4371455;32;20039;-75
2022/03/09 10:16:05;;;;;;;7.57;3.15;;;;;;;4.06;87.99;99467.87;4386944;32;20109;-75
2022/03/09 10:18:32;;;;;;;6.40;2.92;;;;;;;4.20;81.05;99469.59;4372717;32;20074;-75
2022/03/09 10:21:17;;;;;;;6.18;2.80;;;;;;;4.55;72.45;99504.22;4386114;32;20072;-77
2022/03/09 10:24:02;;;;;;;7.95;3.10;;;;;;;4.51;73.58;99487.78;4384409;32;20068;-79
2022/03/09 10:26:42;;;;;;;7.85;3.75;;;;;;;4.23;74.49;99441.72;4385936;32;20057;-77
2022/03/09 10:29:11;;;;;;;15.10;5.50;;;;;;;4.33;83.16;99445.66;4385878;32;20068;-78
2022/03/09 10:31:39;;;;;;;19.87;5.45;;;;;;;4.63;92.01;99482.72;4385371;32;20073;-76
2022/03/09 10:34:14;;;;;;;11.68;4.55;;;;;;;4.82;93.74;99488.28;4385942;32;20377;-76
2022/03/09 10:37:02;;;;;;;15.23;5.75;;;;;;;4.90;91.59;99475.59;4386234;32;20064;-75
2022/03/09 10:39:34;;;;;;;11.30;4.00;;;;;;;5.00;91.92;99475.22;4387206;32;20051;-77
2022/03/09 10:42:03;;;;;;;12.32;4.93;;;;;;;4.88;88.30;99476.81;4387423;32;20077;-77
2022/03/09 10:44:46;;;;;;;10.57;4.70;;;;;;;4.94;92.38;99476.03;4372294;32;20068;-77
2022/03/09 10:47:29;;;;;;;13.55;4.97;;;;;;;5.18;92.18;99449.78;4373864;32;20046;-77
2022/03/09 10:50:14;;;;;;;12.40;5.05;;;;;;;5.29;89.59;99483.88;4387373;32;20079;-75
2022/03/09 10:52:47;;;;;;;7.97;3.70;;;;;;;5.45;86.29;99482.66;4382452;32;20246;-75
2022/03/09 10:55:25;;;;;;;5.32;3.65;;;;;;;5.13;83.21;99425.56;4373637;32;20372;-74
2022/03/09 10:58:15;;;;;;;10.50;3.80;;;;;;;5.31;81.05;99486.34;4374202;32;20108;-76
2022/03/09 11:00:50;;;;;;;14.18;4.70;;;;;;;5.30;79.62;99484.69;4385618;32;20035;-74
2022/03/09 11:03:23;;;;;;;11.45;5.40;;;;;;;5.29;81.88;99478.53;4387192;32;20043;-74
2022/03/09 11:06:03;;;;;;;;;;;;;;;5.60;84.87;99477.09;4384419;32;20035;-74
2022/03/09 11:08:32;;;;;;;16.90;4.25;;;;;;;5.45;86.88;99483.47;4374172;32;19946;-74
2022/03/09 11:10:58;;;;;;;15.23;6.12;;;;;;;5.51;87.18;99475.69;4387127;32;20064;-73
2022/03/09 11:13:27;;;;;;;16.10;5.95;;;;;;;5.56;90.39;99433.16;4384280;32;20061;-75
2022/03/09 11:15:55;;;;;;;12.65;4.68;;;;;;;6.13;87.83;99477.06;4385687;32;20077;-75
2022/03/09 11:18:24;;;;;;;10.15;5.50;;;;;;;6.09;87.54;99467.00;4373300;32;20049;-75
2022/03/09 11:20:53;;;;;;;15.77;6.05;;;;;;;6.23;88.59;99468.59;4372117;32;20027;-75
2022/03/09 11:23:21;;;;;;;12.30;6.20;;;;;;;6.57;87.18;99466.63;4384948;32;20376;-75
2022/03/09 11:25:53;;;;;;;13.40;5.53;;;;;;;6.81;88.01;99474.94;4372870;32;20508;-75
2022/03/09 11:28:30;;;;;;;;;;;;;;;7.17;85.83;99490.41;4377831;32;20086;-76